sensor_id;sensor_type;location;lat;lon;timestamp;P1;durP1;ratioP1;P2;durP2;ratioP2
28958;SDS011;16066;0.000;0.000;2022-10-26T00:00:25;9.50;;;7.30;;
28958;SDS011;16066;0.000;0.000;2022-10-26T00:02:55;12.80;;;8.80;;
28958;SDS011;16066;0.000;0.000;2022-10-26T00:05:21;9.70;;;7.10;;
28958;SDS011;16066;0.000;0.000;2022-10-26T00:07:47;11.87;;;8.80;;
28958;SDS011;16066;0.000;0.000;2022-10-26T00:10:13;12.67;;;8.30;;
28958;SDS011;16066;0.000;0.000;2022-10-26T00:12:39;9.50;;;7.70;;
28958;SDS011;16066;0.000;0.000;2022-10-26T00:15:05;11.10;;;7.50;;
28958;SDS011;16066;0.000;0.000;2022-10-26T00:17:31;8.53;;;7.00;;
28958;SDS011;16066;0.000;0.000;2022-10-26T00:19:57;10.83;;;7.40;;
28958;SDS011;16066;0.000;0.000;2022-10-26T00:22:24;9.77;;;7.50;;
28958;SDS011;16066;0.000;0.000;2022-10-26T00:24:50;10.73;;;7.70;;
28958;SDS011;16066;0.000;0.000;2022-10-26T00:27:16;11.50;;;7.37;;
28958;SDS011;16066;0.000;0.000;2022-10-26T00:29:41;9.30;;;7.43;;
28958;SDS011;16066;0.000;0.000;2022-10-26T00:32:07;10.40;;;7.77;;
28958;SDS011;16066;0.000;0.000;2022-10-26T00:34:32;11.07;;;7.77;;
28958;SDS011;16066;0.000;0.000;2022-10-26T00:36:58;9.50;;;7.53;;
28958;SDS011;16066;0.000;0.000;2022-10-26T00:39:23;10.67;;;7.43;;
28958;SDS011;16066;0.000;0.000;2022-10-26T00:41:49;9.87;;;7.23;;
28958;SDS011;16066;0.000;0.000;2022-10-26T00:50:06;9.20;;;6.90;;
28958;SDS011;16066;0.000;0.000;2022-10-26T00:52:37;9.57;;;7.47;;
28958;SDS011;16066;0.000;0.000;2022-10-26T00:55:04;10.77;;;7.10;;
28958;SDS011;16066;0.000;0.000;2022-10-26T00:57:31;11.60;;;7.90;;
28958;SDS011;16066;0.000;0.000;2022-10-26T00:59:57;11.20;;;7.40;;
28958;SDS011;16066;0.000;0.000;2022-10-26T01:02:24;8.80;;;7.37;;
28958;SDS011;16066;0.000;0.000;2022-10-26T01:04:49;10.47;;;7.00;;
28958;SDS011;16066;0.000;0.000;2022-10-26T01:07:17;10.53;;;7.20;;
28958;SDS011;16066;0.000;0.000;2022-10-26T01:09:43;11.07;;;7.73;;
28958;SDS011;16066;0.000;0.000;2022-10-26T01:12:09;9.90;;;7.43;;
28958;SDS011;16066;0.000;0.000;2022-10-26T01:14:34;12.17;;;7.73;;
28958;SDS011;16066;0.000;0.000;2022-10-26T01:17:10;10.87;;;7.30;;
28958;SDS011;16066;0.000;0.000;2022-10-26T01:23:02;9.40;;;7.63;;
28958;SDS011;16066;0.000;0.000;2022-10-26T01:25:51;7.83;;;6.63;;
28958;SDS011;16066;0.000;0.000;2022-10-26T01:28:31;9.90;;;7.80;;
28958;SDS011;16066;0.000;0.000;2022-10-26T01:31:00;10.90;;;7.27;;
28958;SDS011;16066;0.000;0.000;2022-10-26T01:33:36;10.47;;;7.90;;
28958;SDS011;16066;0.000;0.000;2022-10-26T01:39:00;8.37;;;6.70;;
28958;SDS011;16066;0.000;0.000;2022-10-26T01:44:13;9.87;;;7.50;;
28958;SDS011;16066;0.000;0.000;2022-10-26T01:46:45;10.63;;;7.83;;
28958;SDS011;16066;0.000;0.000;2022-10-26T01:49:14;9.83;;;7.60;;
28958;SDS011;16066;0.000;0.000;2022-10-26T01:51:43;10.17;;;7.50;;
28958;SDS011;16066;0.000;0.000;2022-10-26T01:54:12;10.40;;;7.50;;
28958;SDS011;16066;0.000;0.000;2022-10-26T01:56:41;12.20;;;7.83;;
28958;SDS011;16066;0.000;0.000;2022-10-26T02:02:11;10.67;;;7.30;;
28958;SDS011;16066;0.000;0.000;2022-10-26T02:10:23;12.93;;;7.47;;
28958;SDS011;16066;0.000;0.000;2022-10-26T02:13:03;12.20;;;7.30;;
28958;SDS011;16066;0.000;0.000;2022-10-26T02:15:52;11.10;;;7.43;;
28958;SDS011;16066;0.000;0.000;2022-10-26T02:20:57;10.87;;;7.53;;
28958;SDS011;16066;0.000;0.000;2022-10-26T02:23:27;11.60;;;7.73;;
28958;SDS011;16066;0.000;0.000;2022-10-26T02:25:55;12.63;;;8.00;;
28958;SDS011;16066;0.000;0.000;2022-10-26T02:28:25;13.60;;;7.63;;
28958;SDS011;16066;0.000;0.000;2022-10-26T02:30:57;9.83;;;7.13;;
28958;SDS011;16066;0.000;0.000;2022-10-26T02:33:24;10.03;;;7.10;;
28958;SDS011;16066;0.000;0.000;2022-10-26T02:35:54;9.77;;;6.97;;
28958;SDS011;16066;0.000;0.000;2022-10-26T02:38:22;11.13;;;7.80;;
28958;SDS011;16066;0.000;0.000;2022-10-26T02:40:48;13.27;;;7.13;;
28958;SDS011;16066;0.000;0.000;2022-10-26T02:43:16;10.00;;;7.40;;
28958;SDS011;16066;0.000;0.000;2022-10-26T02:45:48;10.97;;;8.10;;
28958;SDS011;16066;0.000;0.000;2022-10-26T02:48:18;10.07;;;7.33;;
28958;SDS011;16066;0.000;0.000;2022-10-26T02:50:50;9.27;;;7.00;;
28958;SDS011;16066;0.000;0.000;2022-10-26T02:55:59;9.53;;;7.13;;
28958;SDS011;16066;0.000;0.000;2022-10-26T02:58:31;9.80;;;6.83;;
28958;SDS011;16066;0.000;0.000;2022-10-26T03:01:02;9.80;;;6.93;;
28958;SDS011;16066;0.000;0.000;2022-10-26T03:03:28;8.90;;;6.97;;
28958;SDS011;16066;0.000;0.000;2022-10-26T03:05:53;10.67;;;7.17;;
28958;SDS011;16066;0.000;0.000;2022-10-26T03:08:19;9.70;;;7.50;;
28958;SDS011;16066;0.000;0.000;2022-10-26T03:10:44;13.00;;;7.37;;
28958;SDS011;16066;0.000;0.000;2022-10-26T03:13:10;10.07;;;6.97;;
28958;SDS011;16066;0.000;0.000;2022-10-26T03:15:37;8.13;;;6.97;;
28958;SDS011;16066;0.000;0.000;2022-10-26T03:18:03;9.30;;;6.97;;
28958;SDS011;16066;0.000;0.000;2022-10-26T03:20:30;10.43;;;7.23;;
28958;SDS011;16066;0.000;0.000;2022-10-26T03:22:56;10.03;;;7.13;;
28958;SDS011;16066;0.000;0.000;2022-10-26T03:25:24;9.07;;;6.70;;
28958;SDS011;16066;0.000;0.000;2022-10-26T03:28:00;10.70;;;7.67;;
28958;SDS011;16066;0.000;0.000;2022-10-26T03:30:28;9.10;;;6.90;;
28958;SDS011;16066;0.000;0.000;2022-10-26T03:32:54;8.70;;;6.90;;
28958;SDS011;16066;0.000;0.000;2022-10-26T03:35:20;9.57;;;6.83;;
28958;SDS011;16066;0.000;0.000;2022-10-26T03:37:45;10.20;;;7.30;;
28958;SDS011;16066;0.000;0.000;2022-10-26T03:40:11;9.70;;;7.73;;
28958;SDS011;16066;0.000;0.000;2022-10-26T03:42:37;9.60;;;7.00;;
28958;SDS011;16066;0.000;0.000;2022-10-26T03:45:03;11.97;;;6.60;;
28958;SDS011;16066;0.000;0.000;2022-10-26T03:47:30;9.50;;;7.20;;
28958;SDS011;16066;0.000;0.000;2022-10-26T03:49:55;8.40;;;6.40;;
28958;SDS011;16066;0.000;0.000;2022-10-26T03:52:21;8.23;;;6.77;;
28958;SDS011;16066;0.000;0.000;2022-10-26T03:54:48;10.03;;;7.20;;
28958;SDS011;16066;0.000;0.000;2022-10-26T03:57:14;11.80;;;7.90;;
28958;SDS011;16066;0.000;0.000;2022-10-26T03:59:40;9.10;;;6.97;;
28958;SDS011;16066;0.000;0.000;2022-10-26T04:02:06;9.50;;;7.20;;
28958;SDS011;16066;0.000;0.000;2022-10-26T04:04:31;9.90;;;6.93;;
28958;SDS011;16066;0.000;0.000;2022-10-26T04:06:57;8.77;;;6.90;;
28958;SDS011;16066;0.000;0.000;2022-10-26T04:09:22;9.87;;;7.40;;
28958;SDS011;16066;0.000;0.000;2022-10-26T04:11:48;10.03;;;7.30;;
28958;SDS011;16066;0.000;0.000;2022-10-26T04:14:13;12.33;;;7.43;;
28958;SDS011;16066;0.000;0.000;2022-10-26T04:16:39;9.70;;;7.80;;
28958;SDS011;16066;0.000;0.000;2022-10-26T04:19:04;8.87;;;7.20;;
28958;SDS011;16066;0.000;0.000;2022-10-26T04:21:30;10.90;;;7.37;;
28958;SDS011;16066;0.000;0.000;2022-10-26T04:23:57;10.83;;;8.30;;
28958;SDS011;16066;0.000;0.000;2022-10-26T04:26:22;9.37;;;6.83;;
28958;SDS011;16066;0.000;0.000;2022-10-26T04:28:48;10.63;;;7.30;;
28958;SDS011;16066;0.000;0.000;2022-10-26T04:31:13;8.80;;;7.00;;
28958;SDS011;16066;0.000;0.000;2022-10-26T04:33:39;9.20;;;7.03;;
28958;SDS011;16066;0.000;0.000;2022-10-26T04:36:05;8.93;;;6.90;;
28958;SDS011;16066;0.000;0.000;2022-10-26T04:38:30;11.77;;;7.83;;
28958;SDS011;16066;0.000;0.000;2022-10-26T04:40:56;14.23;;;7.30;;
28958;SDS011;16066;0.000;0.000;2022-10-26T04:43:21;10.00;;;7.30;;
28958;SDS011;16066;0.000;0.000;2022-10-26T04:45:47;10.30;;;7.00;;
28958;SDS011;16066;0.000;0.000;2022-10-26T04:48:12;12.33;;;7.90;;
28958;SDS011;16066;0.000;0.000;2022-10-26T04:50:38;9.03;;;6.60;;
28958;SDS011;16066;0.000;0.000;2022-10-26T04:53:05;12.10;;;8.00;;
28958;SDS011;16066;0.000;0.000;2022-10-26T04:55:34;8.83;;;6.80;;
28958;SDS011;16066;0.000;0.000;2022-10-26T04:57:59;9.30;;;6.90;;
28958;SDS011;16066;0.000;0.000;2022-10-26T05:00:25;8.60;;;6.50;;
28958;SDS011;16066;0.000;0.000;2022-10-26T05:02:51;9.50;;;7.33;;
28958;SDS011;16066;0.000;0.000;2022-10-26T05:05:22;9.00;;;7.33;;
28958;SDS011;16066;0.000;0.000;2022-10-26T05:07:52;9.70;;;7.17;;
28958;SDS011;16066;0.000;0.000;2022-10-26T05:10:19;11.93;;;8.27;;
28958;SDS011;16066;0.000;0.000;2022-10-26T05:12:49;10.70;;;7.93;;
28958;SDS011;16066;0.000;0.000;2022-10-26T05:15:15;11.90;;;6.93;;
28958;SDS011;16066;0.000;0.000;2022-10-26T05:17:40;25.73;;;6.83;;
28958;SDS011;16066;0.000;0.000;2022-10-26T05:20:06;10.00;;;6.00;;
28958;SDS011;16066;0.000;0.000;2022-10-26T05:22:37;11.30;;;6.40;;
28958;SDS011;16066;0.000;0.000;2022-10-26T05:25:03;10.47;;;6.40;;
28958;SDS011;16066;0.000;0.000;2022-10-26T05:27:28;11.90;;;7.00;;
28958;SDS011;16066;0.000;0.000;2022-10-26T05:29:54;8.07;;;5.87;;
28958;SDS011;16066;0.000;0.000;2022-10-26T05:32:19;9.70;;;6.30;;
28958;SDS011;16066;0.000;0.000;2022-10-26T05:34:45;10.07;;;7.23;;
28958;SDS011;16066;0.000;0.000;2022-10-26T05:37:11;12.80;;;6.63;;
28958;SDS011;16066;0.000;0.000;2022-10-26T05:39:36;16.33;;;7.37;;
28958;SDS011;16066;0.000;0.000;2022-10-26T05:42:02;11.90;;;6.60;;
28958;SDS011;16066;0.000;0.000;2022-10-26T05:44:27;9.70;;;6.90;;
28958;SDS011;16066;0.000;0.000;2022-10-26T05:46:53;12.77;;;7.07;;
28958;SDS011;16066;0.000;0.000;2022-10-26T05:49:18;14.63;;;6.90;;
28958;SDS011;16066;0.000;0.000;2022-10-26T05:51:44;14.87;;;6.80;;
28958;SDS011;16066;0.000;0.000;2022-10-26T05:54:09;12.53;;;6.73;;
28958;SDS011;16066;0.000;0.000;2022-10-26T05:56:36;8.20;;;6.20;;
28958;SDS011;16066;0.000;0.000;2022-10-26T05:59:04;16.43;;;6.60;;
28958;SDS011;16066;0.000;0.000;2022-10-26T06:01:53;8.80;;;6.50;;
28958;SDS011;16066;0.000;0.000;2022-10-26T06:07:00;9.50;;;6.80;;
28958;SDS011;16066;0.000;0.000;2022-10-26T06:09:26;10.17;;;5.87;;
28958;SDS011;16066;0.000;0.000;2022-10-26T06:11:52;9.20;;;5.40;;
28958;SDS011;16066;0.000;0.000;2022-10-26T06:14:18;9.63;;;5.63;;
28958;SDS011;16066;0.000;0.000;2022-10-26T06:16:57;8.70;;;5.20;;
28958;SDS011;16066;0.000;0.000;2022-10-26T06:22:27;8.07;;;5.43;;
28958;SDS011;16066;0.000;0.000;2022-10-26T06:30:19;8.50;;;5.50;;
28958;SDS011;16066;0.000;0.000;2022-10-26T06:32:47;10.27;;;5.90;;
28958;SDS011;16066;0.000;0.000;2022-10-26T06:38:03;8.83;;;5.50;;
28958;SDS011;16066;0.000;0.000;2022-10-26T06:40:34;7.60;;;5.00;;
28958;SDS011;16066;0.000;0.000;2022-10-26T06:43:01;6.80;;;5.57;;
28958;SDS011;16066;0.000;0.000;2022-10-26T06:45:27;7.20;;;5.40;;
28958;SDS011;16066;0.000;0.000;2022-10-26T06:48:03;7.87;;;5.13;;
28958;SDS011;16066;0.000;0.000;2022-10-26T06:53:35;6.23;;;4.40;;
28958;SDS011;16066;0.000;0.000;2022-10-26T06:56:05;6.20;;;4.37;;
28958;SDS011;16066;0.000;0.000;2022-10-26T06:58:32;8.37;;;4.57;;
28958;SDS011;16066;0.000;0.000;2022-10-26T07:01:00;6.30;;;3.97;;
28958;SDS011;16066;0.000;0.000;2022-10-26T07:03:26;5.90;;;3.83;;
28958;SDS011;16066;0.000;0.000;2022-10-26T07:05:51;6.07;;;4.27;;
28958;SDS011;16066;0.000;0.000;2022-10-26T07:08:17;6.73;;;4.13;;
28958;SDS011;16066;0.000;0.000;2022-10-26T07:10:43;4.97;;;4.10;;
28958;SDS011;16066;0.000;0.000;2022-10-26T07:13:10;6.03;;;3.97;;
28958;SDS011;16066;0.000;0.000;2022-10-26T07:15:36;5.97;;;3.83;;
28958;SDS011;16066;0.000;0.000;2022-10-26T07:18:03;4.50;;;3.30;;
28958;SDS011;16066;0.000;0.000;2022-10-26T07:20:30;7.03;;;4.10;;
28958;SDS011;16066;0.000;0.000;2022-10-26T07:22:57;4.40;;;3.23;;
28958;SDS011;16066;0.000;0.000;2022-10-26T07:25:23;7.83;;;4.00;;
28958;SDS011;16066;0.000;0.000;2022-10-26T07:27:49;6.13;;;3.40;;
28958;SDS011;16066;0.000;0.000;2022-10-26T07:30:15;5.13;;;3.30;;
28958;SDS011;16066;0.000;0.000;2022-10-26T07:32:41;5.90;;;3.30;;
28958;SDS011;16066;0.000;0.000;2022-10-26T07:35:07;5.40;;;3.37;;
28958;SDS011;16066;0.000;0.000;2022-10-26T07:37:33;6.50;;;3.87;;
28958;SDS011;16066;0.000;0.000;2022-10-26T07:39:58;8.40;;;3.00;;
28958;SDS011;16066;0.000;0.000;2022-10-26T07:42:24;3.77;;;3.03;;
28958;SDS011;16066;0.000;0.000;2022-10-26T07:44:49;4.40;;;3.10;;
28958;SDS011;16066;0.000;0.000;2022-10-26T07:47:15;4.80;;;3.33;;
28958;SDS011;16066;0.000;0.000;2022-10-26T07:49:40;4.87;;;3.30;;
28958;SDS011;16066;0.000;0.000;2022-10-26T07:52:06;5.37;;;3.80;;
28958;SDS011;16066;0.000;0.000;2022-10-26T07:54:32;5.07;;;3.60;;
28958;SDS011;16066;0.000;0.000;2022-10-26T07:56:58;7.50;;;4.00;;
28958;SDS011;16066;0.000;0.000;2022-10-26T07:59:24;4.57;;;3.60;;
28958;SDS011;16066;0.000;0.000;2022-10-26T08:01:49;3.73;;;3.33;;
28958;SDS011;16066;0.000;0.000;2022-10-26T08:04:15;5.23;;;3.37;;
28958;SDS011;16066;0.000;0.000;2022-10-26T08:06:40;4.60;;;3.13;;
28958;SDS011;16066;0.000;0.000;2022-10-26T08:09:06;4.13;;;3.30;;
28958;SDS011;16066;0.000;0.000;2022-10-26T08:11:31;5.53;;;3.97;;
28958;SDS011;16066;0.000;0.000;2022-10-26T08:13:57;5.00;;;3.07;;
28958;SDS011;16066;0.000;0.000;2022-10-26T08:16:22;5.33;;;3.60;;
28958;SDS011;16066;0.000;0.000;2022-10-26T08:18:48;5.07;;;3.47;;
28958;SDS011;16066;0.000;0.000;2022-10-26T08:21:15;4.10;;;3.67;;
28958;SDS011;16066;0.000;0.000;2022-10-26T08:23:41;5.70;;;3.70;;
28958;SDS011;16066;0.000;0.000;2022-10-26T08:26:08;7.53;;;4.43;;
28958;SDS011;16066;0.000;0.000;2022-10-26T08:28:37;5.80;;;4.20;;
28958;SDS011;16066;0.000;0.000;2022-10-26T08:31:03;5.20;;;4.10;;
28958;SDS011;16066;0.000;0.000;2022-10-26T08:33:28;5.50;;;3.87;;
28958;SDS011;16066;0.000;0.000;2022-10-26T08:35:58;6.20;;;4.20;;
28958;SDS011;16066;0.000;0.000;2022-10-26T08:38:25;5.27;;;3.50;;
28958;SDS011;16066;0.000;0.000;2022-10-26T08:40:51;5.73;;;3.90;;
28958;SDS011;16066;0.000;0.000;2022-10-26T08:43:24;5.30;;;4.10;;
28958;SDS011;16066;0.000;0.000;2022-10-26T08:46:04;5.17;;;3.40;;
28958;SDS011;16066;0.000;0.000;2022-10-26T08:48:37;6.50;;;3.87;;
28958;SDS011;16066;0.000;0.000;2022-10-26T08:51:28;4.47;;;3.40;;
28958;SDS011;16066;0.000;0.000;2022-10-26T08:53:59;5.70;;;3.00;;
28958;SDS011;16066;0.000;0.000;2022-10-26T08:56:41;5.23;;;3.47;;
28958;SDS011;16066;0.000;0.000;2022-10-26T09:01:58;3.30;;;2.73;;
28958;SDS011;16066;0.000;0.000;2022-10-26T09:04:26;6.50;;;2.80;;
28958;SDS011;16066;0.000;0.000;2022-10-26T09:21:17;4.30;;;2.27;;
28958;SDS011;16066;0.000;0.000;2022-10-26T09:26:47;3.73;;;2.00;;
28958;SDS011;16066;0.000;0.000;2022-10-26T09:29:16;2.67;;;1.83;;
28958;SDS011;16066;0.000;0.000;2022-10-26T09:31:44;3.20;;;2.30;;
28958;SDS011;16066;0.000;0.000;2022-10-26T09:34:23;7.40;;;1.97;;
28958;SDS011;16066;0.000;0.000;2022-10-26T09:36:55;4.10;;;1.90;;
28958;SDS011;16066;0.000;0.000;2022-10-26T09:39:23;2.00;;;1.57;;
28958;SDS011;16066;0.000;0.000;2022-10-26T09:41:54;6.13;;;2.67;;
28958;SDS011;16066;0.000;0.000;2022-10-26T09:44:28;2.27;;;1.73;;
28958;SDS011;16066;0.000;0.000;2022-10-26T09:47:02;3.13;;;1.70;;
28958;SDS011;16066;0.000;0.000;2022-10-26T09:49:44;4.00;;;1.90;;
28958;SDS011;16066;0.000;0.000;2022-10-26T09:52:15;5.60;;;2.27;;
28958;SDS011;16066;0.000;0.000;2022-10-26T09:54:40;3.73;;;1.90;;
28958;SDS011;16066;0.000;0.000;2022-10-26T09:57:06;4.63;;;1.83;;
28958;SDS011;16066;0.000;0.000;2022-10-26T09:59:33;1.70;;;1.50;;
28958;SDS011;16066;0.000;0.000;2022-10-26T10:02:49;2.50;;;1.67;;
28958;SDS011;16066;0.000;0.000;2022-10-26T10:05:02;1.80;;;1.60;;
28958;SDS011;16066;0.000;0.000;2022-10-26T10:07:44;3.90;;;1.83;;
28958;SDS011;16066;0.000;0.000;2022-10-26T10:10:17;7.03;;;2.47;;
28958;SDS011;16066;0.000;0.000;2022-10-26T10:12:44;5.10;;;2.03;;
28958;SDS011;16066;0.000;0.000;2022-10-26T10:15:24;5.90;;;2.07;;
28958;SDS011;16066;0.000;0.000;2022-10-26T10:17:51;4.00;;;1.67;;
28958;SDS011;16066;0.000;0.000;2022-10-26T10:20:21;4.10;;;1.90;;
28958;SDS011;16066;0.000;0.000;2022-10-26T10:22:58;5.33;;;2.20;;
28958;SDS011;16066;0.000;0.000;2022-10-26T10:27:59;7.03;;;2.00;;
28958;SDS011;16066;0.000;0.000;2022-10-26T10:30:31;6.20;;;2.43;;
28958;SDS011;16066;0.000;0.000;2022-10-26T10:33:04;5.80;;;2.03;;
28958;SDS011;16066;0.000;0.000;2022-10-26T10:35:32;3.60;;;1.90;;
28958;SDS011;16066;0.000;0.000;2022-10-26T10:37:57;2.23;;;1.70;;
28958;SDS011;16066;0.000;0.000;2022-10-26T10:40:24;4.63;;;2.10;;
28958;SDS011;16066;0.000;0.000;2022-10-26T10:42:52;5.17;;;2.20;;
28958;SDS011;16066;0.000;0.000;2022-10-26T10:45:35;5.47;;;2.27;;
28958;SDS011;16066;0.000;0.000;2022-10-26T10:50:36;4.33;;;1.70;;
28958;SDS011;16066;0.000;0.000;2022-10-26T10:53:15;5.30;;;1.87;;
28958;SDS011;16066;0.000;0.000;2022-10-26T10:55:56;13.13;;;2.13;;
28958;SDS011;16066;0.000;0.000;2022-10-26T10:58:39;3.57;;;1.90;;
28958;SDS011;16066;0.000;0.000;2022-10-26T11:01:28;7.20;;;2.00;;
28958;SDS011;16066;0.000;0.000;2022-10-26T11:06:49;3.07;;;1.77;;
28958;SDS011;16066;0.000;0.000;2022-10-26T11:09:18;4.13;;;2.10;;
28958;SDS011;16066;0.000;0.000;2022-10-26T11:11:52;3.63;;;1.87;;
28958;SDS011;16066;0.000;0.000;2022-10-26T11:14:24;8.03;;;2.53;;
28958;SDS011;16066;0.000;0.000;2022-10-26T11:17:23;9.63;;;3.00;;
28958;SDS011;16066;0.000;0.000;2022-10-26T11:19:56;2.80;;;1.70;;
28958;SDS011;16066;0.000;0.000;2022-10-26T11:22:33;5.13;;;2.13;;
28958;SDS011;16066;0.000;0.000;2022-10-26T11:28:03;4.30;;;2.00;;
28958;SDS011;16066;0.000;0.000;2022-10-26T11:30:36;3.73;;;1.93;;
28958;SDS011;16066;0.000;0.000;2022-10-26T11:33:14;1.90;;;1.70;;
28958;SDS011;16066;0.000;0.000;2022-10-26T11:35:56;5.00;;;1.73;;
28958;SDS011;16066;0.000;0.000;2022-10-26T11:38:39;3.80;;;2.10;;
28958;SDS011;16066;0.000;0.000;2022-10-26T11:44:00;3.87;;;2.17;;
28958;SDS011;16066;0.000;0.000;2022-10-26T11:46:41;7.03;;;2.30;;
28958;SDS011;16066;0.000;0.000;2022-10-26T11:54:18;6.30;;;1.93;;
28958;SDS011;16066;0.000;0.000;2022-10-26T11:56:46;3.07;;;2.07;;
28958;SDS011;16066;0.000;0.000;2022-10-26T11:59:16;9.30;;;2.03;;
28958;SDS011;16066;0.000;0.000;2022-10-26T12:01:46;7.37;;;2.70;;
28958;SDS011;16066;0.000;0.000;2022-10-26T12:04:17;6.40;;;2.13;;
28958;SDS011;16066;0.000;0.000;2022-10-26T12:06:45;2.17;;;1.90;;
28958;SDS011;16066;0.000;0.000;2022-10-26T12:09:17;5.17;;;1.97;;
28958;SDS011;16066;0.000;0.000;2022-10-26T12:14:36;2.73;;;1.80;;
28958;SDS011;16066;0.000;0.000;2022-10-26T12:20:09;2.83;;;1.80;;
28958;SDS011;16066;0.000;0.000;2022-10-26T12:23:02;2.40;;;1.97;;
28958;SDS011;16066;0.000;0.000;2022-10-26T12:25:28;3.57;;;1.73;;
28958;SDS011;16066;0.000;0.000;2022-10-26T12:27:54;7.37;;;2.87;;
28958;SDS011;16066;0.000;0.000;2022-10-26T12:30:26;4.70;;;2.97;;
28958;SDS011;16066;0.000;0.000;2022-10-26T12:33:00;6.63;;;2.97;;
28958;SDS011;16066;0.000;0.000;2022-10-26T12:35:46;9.33;;;3.70;;
28958;SDS011;16066;0.000;0.000;2022-10-26T12:43:32;6.23;;;2.67;;
28958;SDS011;16066;0.000;0.000;2022-10-26T12:48:40;7.37;;;2.80;;
28958;SDS011;16066;0.000;0.000;2022-10-26T12:53:51;9.83;;;4.43;;
28958;SDS011;16066;0.000;0.000;2022-10-26T12:56:54;9.90;;;4.30;;
28958;SDS011;16066;0.000;0.000;2022-10-26T13:04:53;5.90;;;4.00;;
28958;SDS011;16066;0.000;0.000;2022-10-26T13:07:32;6.40;;;3.83;;
28958;SDS011;16066;0.000;0.000;2022-10-26T13:12:44;6.73;;;3.57;;
28958;SDS011;16066;0.000;0.000;2022-10-26T13:15:19;4.17;;;2.97;;
28958;SDS011;16066;0.000;0.000;2022-10-26T13:17:52;8.50;;;3.60;;
28958;SDS011;16066;0.000;0.000;2022-10-26T13:20:22;4.90;;;3.40;;
28958;SDS011;16066;0.000;0.000;2022-10-26T13:22:47;5.07;;;3.30;;
28958;SDS011;16066;0.000;0.000;2022-10-26T13:25:26;8.73;;;3.40;;
28958;SDS011;16066;0.000;0.000;2022-10-26T13:28:28;6.57;;;3.80;;
28958;SDS011;16066;0.000;0.000;2022-10-26T13:30:56;4.40;;;3.20;;
28958;SDS011;16066;0.000;0.000;2022-10-26T13:33:23;4.30;;;2.83;;
28958;SDS011;16066;0.000;0.000;2022-10-26T13:35:55;5.90;;;3.53;;
28958;SDS011;16066;0.000;0.000;2022-10-26T13:38:23;4.37;;;2.70;;
28958;SDS011;16066;0.000;0.000;2022-10-26T13:40:55;5.20;;;3.20;;
28958;SDS011;16066;0.000;0.000;2022-10-26T13:43:28;6.30;;;3.17;;
28958;SDS011;16066;0.000;0.000;2022-10-26T13:45:55;3.93;;;2.50;;
28958;SDS011;16066;0.000;0.000;2022-10-26T13:51:00;4.23;;;2.83;;
28958;SDS011;16066;0.000;0.000;2022-10-26T13:53:35;6.83;;;2.97;;
28958;SDS011;16066;0.000;0.000;2022-10-26T13:58:49;5.10;;;2.80;;
28958;SDS011;16066;0.000;0.000;2022-10-26T14:01:24;4.10;;;2.67;;
28958;SDS011;16066;0.000;0.000;2022-10-26T14:03:50;3.67;;;2.70;;
28958;SDS011;16066;0.000;0.000;2022-10-26T14:06:26;4.13;;;2.43;;
28958;SDS011;16066;0.000;0.000;2022-10-26T14:08:58;5.73;;;2.47;;
28958;SDS011;16066;0.000;0.000;2022-10-26T14:12:09;4.10;;;2.80;;
28958;SDS011;16066;0.000;0.000;2022-10-26T14:14:24;5.30;;;2.70;;
28958;SDS011;16066;0.000;0.000;2022-10-26T14:16:53;6.10;;;2.30;;
28958;SDS011;16066;0.000;0.000;2022-10-26T14:19:25;5.10;;;2.47;;
28958;SDS011;16066;0.000;0.000;2022-10-26T14:21:59;2.23;;;1.70;;
28958;SDS011;16066;0.000;0.000;2022-10-26T14:26:54;4.37;;;2.07;;
28958;SDS011;16066;0.000;0.000;2022-10-26T14:29:24;5.50;;;2.10;;
28958;SDS011;16066;0.000;0.000;2022-10-26T14:31:51;6.40;;;1.77;;
28958;SDS011;16066;0.000;0.000;2022-10-26T14:34:18;2.67;;;1.73;;
28958;SDS011;16066;0.000;0.000;2022-10-26T14:39:19;4.03;;;1.80;;
28958;SDS011;16066;0.000;0.000;2022-10-26T14:41:55;6.80;;;2.80;;
28958;SDS011;16066;0.000;0.000;2022-10-26T14:44:23;6.27;;;2.43;;
28958;SDS011;16066;0.000;0.000;2022-10-26T14:46:49;3.97;;;2.10;;
28958;SDS011;16066;0.000;0.000;2022-10-26T14:49:16;3.27;;;1.80;;
28958;SDS011;16066;0.000;0.000;2022-10-26T14:51:44;3.40;;;1.80;;
28958;SDS011;16066;0.000;0.000;2022-10-26T14:54:20;4.67;;;2.27;;
28958;SDS011;16066;0.000;0.000;2022-10-26T14:56:47;3.50;;;2.13;;
28958;SDS011;16066;0.000;0.000;2022-10-26T15:04:31;2.80;;;1.93;;
28958;SDS011;16066;0.000;0.000;2022-10-26T15:09:41;4.80;;;2.23;;
28958;SDS011;16066;0.000;0.000;2022-10-26T15:12:16;3.60;;;2.13;;
28958;SDS011;16066;0.000;0.000;2022-10-26T15:14:50;2.07;;;1.40;;
28958;SDS011;16066;0.000;0.000;2022-10-26T15:17:20;3.63;;;1.97;;
28958;SDS011;16066;0.000;0.000;2022-10-26T15:19:48;5.20;;;2.47;;
28958;SDS011;16066;0.000;0.000;2022-10-26T15:22:22;3.27;;;1.77;;
28958;SDS011;16066;0.000;0.000;2022-10-26T15:24:51;4.23;;;2.10;;
28958;SDS011;16066;0.000;0.000;2022-10-26T15:27:19;4.33;;;1.70;;
28958;SDS011;16066;0.000;0.000;2022-10-26T15:29:48;9.03;;;1.80;;
28958;SDS011;16066;0.000;0.000;2022-10-26T15:32:17;4.10;;;2.00;;
28958;SDS011;16066;0.000;0.000;2022-10-26T15:34:47;3.10;;;1.90;;
28958;SDS011;16066;0.000;0.000;2022-10-26T15:37:14;6.23;;;2.90;;
28958;SDS011;16066;0.000;0.000;2022-10-26T15:39:40;3.30;;;2.40;;
28958;SDS011;16066;0.000;0.000;2022-10-26T15:42:08;2.67;;;2.10;;
28958;SDS011;16066;0.000;0.000;2022-10-26T15:44:37;4.90;;;2.40;;
28958;SDS011;16066;0.000;0.000;2022-10-26T15:47:03;3.30;;;1.97;;
28958;SDS011;16066;0.000;0.000;2022-10-26T15:49:28;2.50;;;2.00;;
28958;SDS011;16066;0.000;0.000;2022-10-26T15:51:54;3.63;;;2.03;;
28958;SDS011;16066;0.000;0.000;2022-10-26T15:54:20;5.20;;;2.00;;
28958;SDS011;16066;0.000;0.000;2022-10-26T15:56:45;2.67;;;1.80;;
28958;SDS011;16066;0.000;0.000;2022-10-26T15:59:15;2.37;;;2.00;;
28958;SDS011;16066;0.000;0.000;2022-10-26T16:01:42;2.13;;;1.63;;
28958;SDS011;16066;0.000;0.000;2022-10-26T16:04:09;2.73;;;1.57;;
28958;SDS011;16066;0.000;0.000;2022-10-26T16:06:36;2.43;;;1.57;;
28958;SDS011;16066;0.000;0.000;2022-10-26T16:09:04;4.40;;;1.87;;
28958;SDS011;16066;0.000;0.000;2022-10-26T16:11:31;2.20;;;1.60;;
28958;SDS011;16066;0.000;0.000;2022-10-26T16:13:57;7.43;;;2.13;;
28958;SDS011;16066;0.000;0.000;2022-10-26T16:16:23;4.33;;;2.47;;
28958;SDS011;16066;0.000;0.000;2022-10-26T16:18:52;5.93;;;2.90;;
28958;SDS011;16066;0.000;0.000;2022-10-26T16:21:19;2.83;;;1.63;;
28958;SDS011;16066;0.000;0.000;2022-10-26T16:23:47;3.33;;;1.90;;
28958;SDS011;16066;0.000;0.000;2022-10-26T16:26:14;4.27;;;2.10;;
28958;SDS011;16066;0.000;0.000;2022-10-26T16:28:39;3.33;;;2.37;;
28958;SDS011;16066;0.000;0.000;2022-10-26T16:31:06;3.50;;;1.87;;
28958;SDS011;16066;0.000;0.000;2022-10-26T16:33:34;3.30;;;1.60;;
28958;SDS011;16066;0.000;0.000;2022-10-26T16:36:00;2.90;;;1.70;;
28958;SDS011;16066;0.000;0.000;2022-10-26T16:38:27;3.53;;;1.83;;
28958;SDS011;16066;0.000;0.000;2022-10-26T16:41:02;2.03;;;1.70;;
28958;SDS011;16066;0.000;0.000;2022-10-26T16:43:35;3.53;;;2.40;;
28958;SDS011;16066;0.000;0.000;2022-10-26T16:46:06;2.13;;;1.70;;
28958;SDS011;16066;0.000;0.000;2022-10-26T16:48:38;3.20;;;1.90;;
28958;SDS011;16066;0.000;0.000;2022-10-26T16:51:09;3.53;;;2.17;;
28958;SDS011;16066;0.000;0.000;2022-10-26T16:53:39;4.50;;;2.30;;
28958;SDS011;16066;0.000;0.000;2022-10-26T16:56:07;4.40;;;2.27;;
28958;SDS011;16066;0.000;0.000;2022-10-26T16:58:34;4.20;;;2.43;;
28958;SDS011;16066;0.000;0.000;2022-10-26T17:01:00;4.53;;;2.77;;
28958;SDS011;16066;0.000;0.000;2022-10-26T17:03:25;7.73;;;2.70;;
28958;SDS011;16066;0.000;0.000;2022-10-26T17:05:58;3.50;;;2.37;;
28958;SDS011;16066;0.000;0.000;2022-10-26T17:08:25;3.33;;;2.50;;
28958;SDS011;16066;0.000;0.000;2022-10-26T17:10:51;7.23;;;3.00;;
28958;SDS011;16066;0.000;0.000;2022-10-26T17:13:17;5.83;;;2.47;;
28958;SDS011;16066;0.000;0.000;2022-10-26T17:15:43;4.27;;;2.60;;
28958;SDS011;16066;0.000;0.000;2022-10-26T17:18:09;5.67;;;2.90;;